Time;durP1;ratioP1;P1;durP2;ratioP2;P2;SDS_P1;SDS_P2;PMS_P1;PMS_P2;Temp;Humidity;BMP_temperature;BMP_pressure;BME280_temperature;BME280_humidity;BME280_pressure;Samples;Min_cycle;Max_cycle;Signal;HPM_P1;HPM_P2
2023/11/06 00:00:43;;;;;;;9.23;2.93;;;;;;;;;;5043377;28;20025;-62
2023/11/06 00:03:08;;;;;;;7.90;3.43;;;;;;;;;;5045840;28;20045;-62
2023/11/06 00:05:35;;;;;;;15.03;3.40;;;;;;;;;;5041758;28;20351;-63
2023/11/06 00:08:00;;;;;;;9.13;3.47;;;;;;;;;;5040329;28;20363;-64
2023/11/06 00:10:25;;;;;;;9.07;3.20;;;;;;;;;;5031444;28;20088;-66
2023/11/06 00:12:50;;;;;;;8.37;3.20;;;;;;;;;;5034183;28;20029;-62
2023/11/06 00:15:16;;;;;;;8.50;3.00;;;;;;;;;;5042450;28;20036;-64
2023/11/06 00:17:42;;;;;;;9.50;2.73;;;;;;;;;;5041812;28;20096;-62
2023/11/06 00:20:10;;;;;;;9.37;2.80;;;;;;;;;;5042255;28;20407;-61
2023/11/06 00:22:36;;;;;;;10.47;2.87;;;;;;;;;;5024566;28;20415;-66
2023/11/06 00:25:01;;;;;;;6.23;2.33;;;;;;;;;;5035210;28;20025;-62
2023/11/06 00:27:27;;;;;;;6.50;2.67;;;;;;;;;;5038414;28;20400;-63
2023/11/06 00:29:52;;;;;;;7.53;2.60;;;;;;;;;;5048189;28;20314;-62
2023/11/06 00:32:17;;;;;;;10.53;3.57;;;;;;;;;;5006948;28;20094;-61
2023/11/06 00:34:43;;;;;;;6.77;2.50;;;;;;;;;;5028467;28;20068;-66
2023/11/06 00:37:08;;;;;;;8.57;2.67;;;;;;;;;;5041700;28;20029;-64
2023/11/06 00:39:35;;;;;;;8.53;2.40;;;;;;;;;;5043475;28;20523;-66
2023/11/06 00:42:01;;;;;;;6.63;2.63;;;;;;;;;;5042585;28;20021;-66
2023/11/06 00:44:26;;;;;;;4.53;2.13;;;;;;;;;;5037688;28;20033;-66
2023/11/06 00:46:52;;;;;;;9.07;2.07;;;;;;;;;;5041644;28;20029;-68
2023/11/06 00:49:17;;;;;;;5.57;2.47;;;;;;;;;;5037888;28;20095;-65
2023/11/06 00:51:42;;;;;;;9.03;2.50;;;;;;;;;;5033639;28;20091;-69
2023/11/06 00:54:07;;;;;;;9.10;2.00;;;;;;;;;;5028719;28;20038;-65
2023/11/06 00:56:33;;;;;;;6.60;1.97;;;;;;;;;;5043548;28;20017;-65
2023/11/06 00:58:59;;;;;;;8.90;2.73;;;;;;;;;;5045782;28;20570;-66
2023/11/06 01:01:26;;;;;;;5.10;1.60;;;;;;;;;;5035230;28;20026;-69
2023/11/06 01:03:51;;;;;;;5.70;1.80;;;;;;;;;;5043774;28;20053;-65
2023/11/06 01:06:17;;;;;;;5.23;1.90;;;;;;;;;;5044336;28;20533;-69
2023/11/06 01:08:42;;;;;;;5.30;2.60;;;;;;;;;;5042494;28;20392;-67
2023/11/06 01:11:09;;;;;;;6.87;2.10;;;;;;;;;;5039402;28;20025;-67
2023/11/06 01:13:34;;;;;;;7.10;2.13;;;;;;;;;;5036759;28;20029;-66
2023/11/06 01:15:59;;;;;;;5.97;2.07;;;;;;;;;;5042149;28;20491;-65
2023/11/06 01:18:25;;;;;;;9.60;2.40;;;;;;;;;;5042255;28;20412;-68
2023/11/06 01:20:50;;;;;;;7.40;2.50;;;;;;;;;;5039657;28;20393;-69
2023/11/06 01:23:15;;;;;;;4.83;2.17;;;;;;;;;;5042695;28;20033;-66
2023/11/06 01:25:42;;;;;;;9.23;2.70;;;;;;;;;;5038070;28;20035;-65
2023/11/06 01:28:09;;;;;;;7.90;2.80;;;;;;;;;;5040050;28;20440;-64
2023/11/06 01:30:34;;;;;;;7.40;2.27;;;;;;;;;;5040553;28;20075;-68
2023/11/06 01:33:00;;;;;;;8.20;2.80;;;;;;;;;;5038921;28;20022;-66
2023/11/06 01:35:30;;;;;;;9.13;3.30;;;;;;;;;;5040089;28;20374;-69
2023/11/06 01:37:55;;;;;;;6.17;3.10;;;;;;;;;;5039020;28;20298;-68
2023/11/06 01:40:20;;;;;;;7.23;3.40;;;;;;;;;;5041202;28;20048;-66
2023/11/06 01:42:46;;;;;;;5.60;2.63;;;;;;;;;;5042486;28;20371;-67
2023/11/06 01:45:12;;;;;;;8.10;3.77;;;;;;;;;;5042554;28;20055;-66
2023/11/06 01:47:37;;;;;;;10.40;3.77;;;;;;;;;;5042638;28;20029;-67
2023/11/06 01:50:03;;;;;;;7.53;2.87;;;;;;;;;;5042190;28;20044;-66
2023/11/06 01:52:30;;;;;;;9.00;3.40;;;;;;;;;;5041028;28;20051;-62
2023/11/06 01:54:55;;;;;;;6.27;3.50;;;;;;;;;;5042601;28;20029;-66
2023/11/06 01:57:21;;;;;;;8.10;3.50;;;;;;;;;;5040301;28;20546;-67
2023/11/06 01:59:46;;;;;;;10.37;3.60;;;;;;;;;;5039394;28;20025;-66
2023/11/06 02:02:14;;;;;;;8.77;3.50;;;;;;;;;;5043433;28;20508;-65
2023/11/06 02:04:47;;;;;;;7.70;2.90;;;;;;;;;;5043631;28;20557;-64
2023/11/06 02:07:12;;;;;;;9.10;3.57;;;;;;;;;;5043369;28;20036;-62
2023/11/06 02:09:37;;;;;;;7.93;3.67;;;;;;;;;;5038823;28;20022;-63
2023/11/06 02:12:03;;;;;;;9.20;3.30;;;;;;;;;;5039946;28;20033;-63
2023/11/06 02:14:28;;;;;;;7.63;3.60;;;;;;;;;;5047861;28;20060;-67
2023/11/06 02:16:54;;;;;;;7.37;3.13;;;;;;;;;;5044655;28;20028;-65
2023/11/06 02:19:20;;;;;;;12.13;3.90;;;;;;;;;;5041195;28;20452;-67
2023/11/06 02:21:49;;;;;;;9.50;4.03;;;;;;;;;;5034064;28;20028;-62
2023/11/06 02:24:14;;;;;;;8.57;3.87;;;;;;;;;;5029123;28;20528;-64
2023/11/06 02:26:40;;;;;;;9.10;3.87;;;;;;;;;;5039791;28;20031;-63
2023/11/06 02:29:05;;;;;;;9.63;4.20;;;;;;;;;;5026324;28;20472;-62
2023/11/06 02:31:30;;;;;;;8.90;4.13;;;;;;;;;;5039857;28;20029;-62
2023/11/06 02:33:55;;;;;;;9.83;4.67;;;;;;;;;;5037601;28;20386;-65
2023/11/06 02:36:21;;;;;;;10.07;4.17;;;;;;;;;;5037087;28;20351;-64
2023/11/06 02:38:46;;;;;;;10.80;4.27;;;;;;;;;;5039333;28;20389;-64
2023/11/06 02:41:12;;;;;;;10.70;4.60;;;;;;;;;;5032197;28;20393;-67
2023/11/06 02:43:37;;;;;;;10.03;4.23;;;;;;;;;;5043348;28;20016;-63
2023/11/06 02:46:03;;;;;;;11.50;4.10;;;;;;;;;;5043875;28;20431;-65
2023/11/06 02:48:28;;;;;;;10.03;4.03;;;;;;;;;;5038552;28;20275;-64
2023/11/06 02:50:53;;;;;;;8.87;4.17;;;;;;;;;;5043440;28;20068;-65
2023/11/06 02:53:18;;;;;;;11.43;4.00;;;;;;;;;;5042542;28;20020;-64
2023/11/06 02:55:44;;;;;;;7.93;3.40;;;;;;;;;;5041149;28;20020;-63
2023/11/06 02:58:09;;;;;;;9.73;3.80;;;;;;;;;;5043091;28;20312;-69
2023/11/06 03:00:34;;;;;;;9.93;4.50;;;;;;;;;;5042607;28;20033;-67
2023/11/06 03:02:59;;;;;;;10.90;3.93;;;;;;;;;;5042333;28;20100;-69
2023/11/06 03:05:24;;;;;;;12.33;4.60;;;;;;;;;;5036655;28;20719;-70
2023/11/06 03:07:50;;;;;;;11.73;4.00;;;;;;;;;;5033602;28;20513;-66
2023/11/06 03:10:15;;;;;;;10.37;4.20;;;;;;;;;;5038342;28;20516;-67
2023/11/06 03:12:41;;;;;;;10.70;4.83;;;;;;;;;;5043268;28;20370;-69
2023/11/06 03:15:07;;;;;;;12.00;4.00;;;;;;;;;;5040995;28;20049;-66
2023/11/06 03:17:32;;;;;;;9.73;4.07;;;;;;;;;;5035145;28;20014;-65
2023/11/06 03:19:57;;;;;;;8.13;3.90;;;;;;;;;;5032133;28;20382;-66
2023/11/06 03:22:23;;;;;;;14.53;4.57;;;;;;;;;;5043747;28;20037;-68
2023/11/06 03:24:48;;;;;;;10.97;4.80;;;;;;;;;;5042556;28;20020;-69
2023/11/06 03:27:13;;;;;;;9.70;3.73;;;;;;;;;;5043429;28;20033;-68
2023/11/06 03:29:39;;;;;;;9.50;3.53;;;;;;;;;;5040785;28;20021;-66
2023/11/06 03:32:04;;;;;;;9.73;3.60;;;;;;;;;;5044157;28;20020;-65
2023/11/06 03:34:30;;;;;;;6.90;3.33;;;;;;;;;;5038914;28;20024;-65
2023/11/06 03:36:55;;;;;;;11.03;3.67;;;;;;;;;;5046975;28;20024;-66
2023/11/06 03:39:22;;;;;;;9.73;3.13;;;;;;;;;;5043689;28;20029;-67
2023/11/06 03:41:47;;;;;;;9.90;3.63;;;;;;;;;;5040483;28;20532;-69
2023/11/06 03:44:13;;;;;;;11.13;3.80;;;;;;;;;;5043999;28;20029;-66
2023/11/06 03:46:39;;;;;;;9.33;4.30;;;;;;;;;;5042769;28;20590;-66
2023/11/06 03:49:05;;;;;;;11.97;4.03;;;;;;;;;;5044542;28;20029;-66
2023/11/06 03:51:30;;;;;;;8.40;3.63;;;;;;;;;;5045694;28;20182;-65
2023/11/06 03:53:56;;;;;;;11.03;3.53;;;;;;;;;;5047626;28;20048;-67
2023/11/06 03:56:21;;;;;;;9.13;3.87;;;;;;;;;;5043250;28;20033;-64
2023/11/06 03:58:46;;;;;;;11.53;4.17;;;;;;;;;;5046555;28;20035;-69
2023/11/06 04:01:11;;;;;;;12.07;4.53;;;;;;;;;;5043681;28;20053;-66
2023/11/06 04:03:37;;;;;;;8.07;3.73;;;;;;;;;;5041700;28;20417;-66
2023/11/06 04:06:03;;;;;;;9.83;4.23;;;;;;;;;;5046208;28;20124;-69
2023/11/06 04:08:28;;;;;;;10.80;4.20;;;;;;;;;;5045369;28;20028;-67
2023/11/06 04:10:53;;;;;;;10.37;4.03;;;;;;;;;;5045219;28;20056;-68
2023/11/06 04:13:19;;;;;;;11.10;4.20;;;;;;;;;;5043045;28;20067;-67
2023/11/06 04:15:44;;;;;;;9.97;3.40;;;;;;;;;;5039039;28;20022;-66
2023/11/06 04:18:10;;;;;;;7.37;3.97;;;;;;;;;;5040453;28;20021;-69
2023/11/06 04:20:35;;;;;;;7.83;3.07;;;;;;;;;;5045598;28;20025;-67
2023/11/06 04:23:00;;;;;;;12.67;4.17;;;;;;;;;;5045076;28;20048;-69
2023/11/06 04:25:26;;;;;;;8.83;3.93;;;;;;;;;;5042582;28;20428;-68
2023/11/06 04:27:51;;;;;;;12.20;3.63;;;;;;;;;;5042233;28;20029;-65
2023/11/06 04:30:16;;;;;;;8.70;3.37;;;;;;;;;;5038952;28;20034;-69
2023/11/06 04:32:41;;;;;;;10.27;3.73;;;;;;;;;;5048527;28;20032;-69
2023/11/06 04:35:07;;;;;;;9.93;3.60;;;;;;;;;;5046231;28;20458;-65
2023/11/06 04:37:34;;;;;;;10.27;3.53;;;;;;;;;;5043050;28;20036;-66
2023/11/06 04:39:59;;;;;;;10.00;3.60;;;;;;;;;;5041414;28;20082;-69
2023/11/06 04:42:24;;;;;;;7.67;3.43;;;;;;;;;;5043781;28;20103;-66
2023/11/06 04:44:50;;;;;;;12.57;4.03;;;;;;;;;;5048555;28;20071;-65
2023/11/06 04:47:15;;;;;;;7.17;3.60;;;;;;;;;;5043003;28;20067;-65
2023/11/06 04:49:40;;;;;;;8.60;3.13;;;;;;;;;;5042785;28;20039;-69
2023/11/06 04:52:06;;;;;;;6.30;3.67;;;;;;;;;;5041699;28;20041;-65
2023/11/06 04:54:31;;;;;;;8.83;3.70;;;;;;;;;;5040690;28;20114;-69
2023/11/06 04:56:56;;;;;;;7.80;3.27;;;;;;;;;;5045190;28;20060;-69
2023/11/06 04:59:21;;;;;;;9.90;3.57;;;;;;;;;;5044583;28;20095;-68
2023/11/06 05:01:47;;;;;;;10.33;3.40;;;;;;;;;;5042125;28;20075;-67
2023/11/06 05:04:12;;;;;;;10.60;3.60;;;;;;;;;;5043306;28;20065;-69
2023/11/06 05:06:38;;;;;;;11.20;3.70;;;;;;;;;;5041838;28;20029;-67
2023/11/06 05:09:04;;;;;;;6.57;2.67;;;;;;;;;;5042787;28;20410;-67
2023/11/06 05:11:30;;;;;;;9.63;2.77;;;;;;;;;;5037886;28;20032;-65
2023/11/06 05:13:55;;;;;;;6.47;2.90;;;;;;;;;;5040701;28;20037;-69
2023/11/06 05:16:20;;;;;;;9.47;3.17;;;;;;;;;;5040469;28;20071;-70
2023/11/06 05:18:46;;;;;;;7.50;2.90;;;;;;;;;;5042614;28;20024;-63
2023/11/06 05:21:11;;;;;;;10.10;2.87;;;;;;;;;;5041079;28;20268;-62
2023/11/06 05:23:36;;;;;;;7.87;2.97;;;;;;;;;;5042418;28;20017;-63
2023/11/06 05:26:04;;;;;;;11.47;3.50;;;;;;;;;;5034847;28;20045;-66
2023/11/06 05:28:30;;;;;;;7.80;3.07;;;;;;;;;;5039797;28;20217;-66
2023/11/06 05:30:56;;;;;;;6.77;2.93;;;;;;;;;;5042285;28;20036;-63
2023/11/06 05:33:21;;;;;;;10.40;3.10;;;;;;;;;;5041259;28;20041;-66
2023/11/06 05:35:46;;;;;;;9.23;3.20;;;;;;;;;;5039243;28;20035;-65
2023/11/06 05:38:11;;;;;;;7.50;2.80;;;;;;;;;;5035534;28;20025;-62
2023/11/06 05:40:37;;;;;;;7.87;3.30;;;;;;;;;;5034651;28;20021;-66
2023/11/06 05:43:02;;;;;;;9.73;3.77;;;;;;;;;;5043874;28;20037;-63
2023/11/06 05:45:27;;;;;;;7.40;3.27;;;;;;;;;;5041028;28;20097;-65
2023/11/06 05:47:52;;;;;;;8.87;3.13;;;;;;;;;;5040289;28;20033;-61
2023/11/06 05:50:17;;;;;;;8.43;3.97;;;;;;;;;;5036430;28;20420;-64
2023/11/06 05:52:43;;;;;;;8.63;3.70;;;;;;;;;;5044002;28;20075;-66
2023/11/06 05:55:08;;;;;;;8.23;3.83;;;;;;;;;;5041913;28;20477;-67
2023/11/06 05:57:34;;;;;;;10.47;3.60;;;;;;;;;;5040963;28;20017;-62
2023/11/06 05:59:59;;;;;;;9.80;4.03;;;;;;;;;;5040216;28;20081;-62
2023/11/06 06:02:24;;;;;;;10.37;3.60;;;;;;;;;;5042565;28;20079;-65
2023/11/06 06:04:50;;;;;;;7.20;3.67;;;;;;;;;;5043538;28;20139;-65
2023/11/06 06:07:15;;;;;;;11.80;4.07;;;;;;;;;;5040911;28;20422;-67
2023/11/06 06:09:41;;;;;;;9.83;3.50;;;;;;;;;;5041374;28;20581;-63
2023/11/06 06:12:07;;;;;;;12.17;4.53;;;;;;;;;;5040373;28;20037;-64
2023/11/06 06:14:32;;;;;;;14.43;4.63;;;;;;;;;;5037725;28;20038;-65
2023/11/06 06:16:57;;;;;;;9.47;4.13;;;;;;;;;;5042753;28;20036;-65
2023/11/06 06:19:23;;;;;;;11.37;4.40;;;;;;;;;;5039260;28;20025;-62
2023/11/06 06:21:48;;;;;;;11.87;4.67;;;;;;;;;;5040802;28;20077;-63
2023/11/06 06:24:15;;;;;;;10.60;4.87;;;;;;;;;;5038927;28;20048;-65
2023/11/06 06:26:41;;;;;;;17.57;5.47;;;;;;;;;;5036723;28;20024;-67
2023/11/06 06:29:06;;;;;;;14.47;5.43;;;;;;;;;;5041743;28;20433;-63
2023/11/06 06:31:31;;;;;;;15.90;5.27;;;;;;;;;;5039469;28;20053;-63
2023/11/06 06:33:58;;;;;;;12.20;5.30;;;;;;;;;;5038985;28;20492;-64
2023/11/06 06:36:23;;;;;;;9.83;4.87;;;;;;;;;;5040463;28;20071;-62
2023/11/06 06:38:49;;;;;;;13.40;5.57;;;;;;;;;;5038358;28;20465;-67
2023/11/06 06:41:14;;;;;;;13.30;5.53;;;;;;;;;;5039751;28;20040;-62
2023/11/06 06:43:39;;;;;;;10.33;4.73;;;;;;;;;;5038107;28;20033;-62
2023/11/06 06:46:05;;;;;;;14.73;5.53;;;;;;;;;;5035736;28;20022;-67
2023/11/06 06:48:30;;;;;;;11.73;5.23;;;;;;;;;;5035437;28;20033;-63
2023/11/06 06:50:56;;;;;;;13.67;4.83;;;;;;;;;;5040821;28;20024;-68
2023/11/06 06:53:21;;;;;;;13.23;4.90;;;;;;;;;;5042235;28;20032;-64
2023/11/06 06:55:46;;;;;;;10.40;4.53;;;;;;;;;;5041041;28;20047;-66
2023/11/06 06:58:12;;;;;;;12.33;4.60;;;;;;;;;;5037343;28;20032;-61
2023/11/06 07:00:37;;;;;;;10.50;4.37;;;;;;;;;;5040341;28;20464;-61
2023/11/06 07:03:05;;;;;;;8.83;3.93;;;;;;;;;;5038233;28;20032;-67
2023/11/06 07:05:31;;;;;;;12.00;4.07;;;;;;;;;;5040744;28;20037;-65
2023/11/06 07:07:56;;;;;;;9.13;3.50;;;;;;;;;;5040211;28;20393;-67
2023/11/06 07:10:21;;;;;;;15.23;3.60;;;;;;;;;;5040339;28;20029;-65
2023/11/06 07:12:46;;;;;;;11.83;3.33;;;;;;;;;;5038494;28;20025;-65
2023/11/06 07:15:12;;;;;;;12.93;3.73;;;;;;;;;;5040017;28;20108;-64
2023/11/06 07:17:37;;;;;;;12.40;3.83;;;;;;;;;;5035758;28;20080;-62
2023/11/06 07:20:03;;;;;;;12.77;4.03;;;;;;;;;;5040646;28;20349;-66
2023/11/06 07:22:28;;;;;;;10.03;3.90;;;;;;;;;;5037179;28;20431;-66
2023/11/06 07:24:54;;;;;;;7.30;3.67;;;;;;;;;;5037893;28;20032;-67
2023/11/06 07:27:21;;;;;;;8.33;3.50;;;;;;;;;;5038137;28;20071;-64
2023/11/06 07:29:46;;;;;;;10.43;3.47;;;;;;;;;;5037159;28;20442;-61
2023/11/06 07:32:11;;;;;;;8.93;3.30;;;;;;;;;;5035033;28;20475;-65
2023/11/06 07:34:36;;;;;;;9.73;3.33;;;;;;;;;;5033081;28;20385;-65
2023/11/06 07:37:02;;;;;;;8.10;3.13;;;;;;;;;;5039439;28;20029;-66
2023/11/06 07:39:27;;;;;;;12.30;3.37;;;;;;;;;;5038658;28;20025;-62
2023/11/06 07:41:53;;;;;;;13.07;3.93;;;;;;;;;;5037105;28;20306;-67
2023/11/06 07:44:18;;;;;;;7.47;2.93;;;;;;;;;;5032844;28;20021;-65
2023/11/06 07:46:43;;;;;;;10.33;3.47;;;;;;;;;;5032136;28;20032;-63
2023/11/06 07:49:08;;;;;;;12.33;3.10;;;;;;;;;;5041502;28;20116;-60
2023/11/06 07:51:34;;;;;;;8.37;3.13;;;;;;;;;;5041114;28;20110;-65
2023/11/06 07:53:59;;;;;;;8.60;3.00;;;;;;;;;;5037135;28;20017;-64
2023/11/06 07:56:24;;;;;;;8.33;2.80;;;;;;;;;;5032490;28;20018;-61
2023/11/06 07:58:49;;;;;;;11.97;3.37;;;;;;;;;;5033495;28;20022;-66
2023/11/06 08:01:16;;;;;;;9.90;3.00;;;;;;;;;;5038111;28;20362;-65
2023/11/06 08:03:41;;;;;;;6.23;2.47;;;;;;;;;;5039308;28;20485;-65
2023/11/06 08:06:06;;;;;;;7.60;2.30;;;;;;;;;;5029815;28;20086;-61
2023/11/06 08:08:32;;;;;;;5.33;2.10;;;;;;;;;;5034298;28;20083;-62
2023/11/06 08:10:57;;;;;;;8.30;1.80;;;;;;;;;;5033160;28;20083;-63
2023/11/06 08:13:22;;;;;;;6.73;1.40;;;;;;;;;;5039211;28;20086;-62
2023/11/06 08:15:48;;;;;;;6.00;1.57;;;;;;;;;;5039774;28;20112;-63
2023/11/06 08:18:13;;;;;;;6.80;1.50;;;;;;;;;;5029847;28;20026;-61
2023/11/06 08:20:39;;;;;;;5.57;1.23;;;;;;;;;;5021266;28;20474;-61
2023/11/06 08:23:04;;;;;;;4.90;1.20;;;;;;;;;;5037801;28;20067;-65
2023/11/06 08:25:31;;;;;;;7.23;1.40;;;;;;;;;;5034463;28;20531;-66
2023/11/06 08:27:57;;;;;;;4.77;1.20;;;;;;;;;;5039369;28;20044;-64
2023/11/06 08:30:23;;;;;;;5.80;1.93;;;;;;;;;;5041348;28;20208;-64
2023/11/06 08:32:48;;;;;;;3.37;0.97;;;;;;;;;;5039111;28;20301;-64
2023/11/06 08:35:13;;;;;;;5.57;1.37;;;;;;;;;;5038053;28;20030;-65
2023/11/06 08:37:39;;;;;;;6.93;1.37;;;;;;;;;;5021716;28;20033;-66
2023/11/06 08:40:05;;;;;;;4.53;1.20;;;;;;;;;;5032158;28;20025;-63
2023/11/06 08:42:30;;;;;;;5.77;1.23;;;;;;;;;;5035670;28;20054;-64
2023/11/06 08:44:55;;;;;;;5.20;1.20;;;;;;;;;;5037810;28;20021;-63
2023/11/06 08:47:21;;;;;;;7.53;1.40;;;;;;;;;;5036563;28;20013;-66
2023/11/06 08:49:46;;;;;;;5.27;1.23;;;;;;;;;;5038368;28;20107;-67
2023/11/06 08:52:12;;;;;;;6.13;1.50;;;;;;;;;;5029075;28;20088;-67
2023/11/06 08:54:45;;;;;;;4.30;1.03;;;;;;;;;;5014838;28;20175;-66
2023/11/06 08:57:10;;;;;;;6.90;1.37;;;;;;;;;;5031682;28;20429;-67
2023/11/06 08:59:35;;;;;;;6.93;1.53;;;;;;;;;;5042161;28;20028;-65
2023/11/06 09:02:01;;;;;;;7.60;1.40;;;;;;;;;;5042621;28;20487;-65
2023/11/06 09:04:27;;;;;;;7.17;1.57;;;;;;;;;;5030036;28;20085;-69
2023/11/06 09:06:52;;;;;;;7.73;1.43;;;;;;;;;;5039850;28;20024;-64
2023/11/06 09:09:18;;;;;;;5.80;1.50;;;;;;;;;;5035003;28;20020;-69
2023/11/06 09:11:44;;;;;;;7.73;1.90;;;;;;;;;;5034115;28;20614;-65
2023/11/06 09:14:10;;;;;;;9.13;1.40;;;;;;;;;;5042667;28;20421;-69
2023/11/06 09:16:35;;;;;;;7.57;1.80;;;;;;;;;;5038755;28;20420;-69
2023/11/06 09:19:01;;;;;;;7.53;1.60;;;;;;;;;;5043023;28;20572;-66
2023/11/06 09:21:26;;;;;;;7.33;1.50;;;;;;;;;;5037707;28;20017;-66
2023/11/06 09:23:52;;;;;;;6.33;1.73;;;;;;;;;;5033481;28;20146;-66
2023/11/06 09:26:19;;;;;;;6.90;1.60;;;;;;;;;;5034322;28;20486;-69
2023/11/06 09:28:44;;;;;;;6.67;1.47;;;;;;;;;;5039916;28;20029;-66
2023/11/06 09:31:09;;;;;;;7.83;1.73;;;;;;;;;;5040986;28;20031;-70
2023/11/06 09:33:34;;;;;;;8.30;1.70;;;;;;;;;;5036236;28;20028;-70
2023/11/06 09:36:00;;;;;;;7.00;1.50;;;;;;;;;;5035431;28;20367;-65
2023/11/06 09:38:26;;;;;;;10.63;1.60;;;;;;;;;;5036004;28;20021;-66
2023/11/06 09:40:52;;;;;;;8.67;1.70;;;;;;;;;;5038599;28;20378;-71
2023/11/06 09:43:17;;;;;;;7.80;1.87;;;;;;;;;;5037402;28;20028;-62
2023/11/06 09:45:42;;;;;;;6.50;1.40;;;;;;;;;;5038167;28;20476;-64
2023/11/06 09:48:09;;;;;;;10.23;1.90;;;;;;;;;;5038477;28;20028;-65
2023/11/06 09:50:35;;;;;;;8.57;1.77;;;;;;;;;;5036320;28;20102;-66
2023/11/06 09:53:01;;;;;;;8.77;1.83;;;;;;;;;;5027290;28;20021;-64
2023/11/06 09:55:26;;;;;;;10.17;1.70;;;;;;;;;;5042214;28;20037;-67
2023/11/06 09:57:52;;;;;;;9.03;1.73;;;;;;;;;;5031198;28;20021;-63
2023/11/06 10:00:18;;;;;;;9.40;1.50;;;;;;;;;;5039492;28;20021;-65
2023/11/06 10:02:43;;;;;;;8.97;1.50;;;;;;;;;;5038791;28;20118;-69
2023/11/06 10:05:15;;;;;;;9.23;1.80;;;;;;;;;;5038633;28;20053;-70
2023/11/06 10:07:45;;;;;;;7.83;2.13;;;;;;;;;;5041587;28;20458;-65
2023/11/06 10:10:11;;;;;;;7.37;1.40;;;;;;;;;;5042025;28;20029;-67
2023/11/06 10:12:36;;;;;;;4.63;1.17;;;;;;;;;;5041384;28;20111;-67
2023/11/06 10:15:01;;;;;;;9.00;1.77;;;;;;;;;;5038547;28;20021;-68
2023/11/06 10:17:27;;;;;;;6.93;1.70;;;;;;;;;;5038124;28;20021;-67
2023/11/06 10:19:59;;;;;;;9.87;1.90;;;;;;;;;;5031084;28;20045;-66
2023/11/06 10:22:26;;;;;;;7.57;1.50;;;;;;;;;;5043944;28;20075;-65
2023/11/06 10:24:53;;;;;;;8.97;1.50;;;;;;;;;;5040017;28;20021;-67
2023/11/06 10:27:23;;;;;;;5.27;1.43;;;;;;;;;;5036945;28;20025;-66
2023/11/06 10:29:57;;;;;;;9.40;1.67;;;;;;;;;;5029304;28;20473;-67
2023/11/06 10:32:28;;;;;;;5.20;1.27;;;;;;;;;;5034655;28;20525;-67
2023/11/06 10:34:53;;;;;;;;;;;;;;;;;;5032428;28;20029;-67
2023/11/06 10:37:19;;;;;;;8.87;1.57;;;;;;;;;;5040827;28;20428;-69
2023/11/06 10:39:51;;;;;;;10.57;2.00;;;;;;;;;;5038655;28;20027;-69
2023/11/06 10:42:18;;;;;;;10.77;1.80;;;;;;;;;;5030702;28;20029;-70
2023/11/06 10:44:44;;;;;;;6.53;1.52;;;;;;;;;;5028648;28;20040;-70
2023/11/06 10:47:09;;;;;;;4.60;1.20;;;;;;;;;;5036061;28;20119;-69
2023/11/06 10:49:50;;;;;;;4.50;1.40;;;;;;;;;;5037262;28;20079;-68
2023/11/06 10:52:16;;;;;;;6.72;1.48;;;;;;;;;;5037815;28;20513;-66
2023/11/06 10:54:42;;;;;;;7.07;1.35;;;;;;;;;;5028393;28;20014;-69
2023/11/06 10:57:09;;;;;;;6.60;1.23;;;;;;;;;;5027481;28;20083;-67
2023/11/06 10:59:34;;;;;;;5.60;1.40;;;;;;;;;;5029663;28;20013;-67
2023/11/06 11:02:02;;;;;;;7.07;1.20;;;;;;;;;;5037633;28;20121;-64
2023/11/06 11:04:30;;;;;;;5.50;1.02;;;;;;;;;;5038411;28;20132;-67
2023/11/06 11:06:55;;;;;;;7.63;1.27;;;;;;;;;;5037105;28;20028;-67
2023/11/06 11:09:21;;;;;;;6.87;1.23;;;;;;;;;;5037567;28;20026;-65
2023/11/06 11:11:46;;;;;;;4.20;1.00;;;;;;;;;;5023555;28;20503;-64
2023/11/06 11:14:15;;;;;;;5.87;1.40;;;;;;;;;;5030921;28;20386;-63
2023/11/06 11:16:41;;;;;;;5.90;1.27;;;;;;;;;;5040062;28;20017;-62
2023/11/06 11:19:20;;;;;;;8.33;1.27;;;;;;;;;;5040870;28;20025;-67
2023/11/06 11:22:04;;;;;;;6.90;1.47;;;;;;;;;;5040002;28;20017;-68
2023/11/06 11:24:45;;;;;;;7.93;1.60;;;;;;;;;;5037285;28;20025;-63
2023/11/06 11:27:16;;;;;;;7.53;1.40;;;;;;;;;;5030296;28;20285;-63
2023/11/06 11:29:53;;;;;;;7.85;1.60;;;;;;;;;;5037352;28;20017;-66
2023/11/06 11:32:19;;;;;;;5.45;1.17;;;;;;;;;;5038760;28;20489;-68
2023/11/06 11:34:45;;;;;;;6.35;1.40;;;;;;;;;;5041042;28;20025;-63
2023/11/06 11:37:34;;;;;;;5.25;1.42;;;;;;;;;;5039703;28;20044;-66
2023/11/06 11:40:01;;;;;;;8.02;1.70;;;;;;;;;;5030546;28;20041;-65
2023/11/06 11:42:27;;;;;;;6.68;1.35;;;;;;;;;;5034955;28;20025;-64
2023/11/06 11:45:06;;;;;;;4.97;1.30;;;;;;;;;;5036775;28;20017;-63
2023/11/06 11:47:47;;;;;;;8.57;1.65;;;;;;;;;;5038038;28;20550;-65
2023/11/06 11:50:27;;;;;;;6.05;1.17;;;;;;;;;;5035091;28;20494;-63
2023/11/06 11:52:56;;;;;;;7.65;1.33;;;;;;;;;;5031349;28;20087;-63
2023/11/06 11:55:39;;;;;;;6.53;1.33;;;;;;;;;;5036193;28;20501;-66
2023/11/06 11:58:09;;;;;;;9.07;1.60;;;;;;;;;;5037921;28;20017;-62
2023/11/06 12:00:34;;;;;;;7.47;1.30;;;;;;;;;;5041789;28;20480;-63
2023/11/06 12:03:18;;;;;;;3.63;0.95;;;;;;;;;;5041052;28;20005;-64
2023/11/06 12:05:46;;;;;;;10.50;1.70;;;;;;;;;;5041208;28;20100;-62
2023/11/06 12:08:22;;;;;;;10.70;2.10;;;;;;;;;;5040588;28;20108;-66
2023/11/06 12:10:48;;;;;;;9.57;1.33;;;;;;;;;;5041198;28;20100;-63
2023/11/06 12:13:13;;;;;;;9.00;1.57;;;;;;;;;;5042965;28;20488;-66
2023/11/06 12:15:38;;;;;;;5.93;1.67;;;;;;;;;;5041979;28;20013;-64
2023/11/06 12:18:07;;;;;;;11.00;2.07;;;;;;;;;;5042328;28;20127;-67
2023/11/06 12:20:32;;;;;;;10.00;2.10;;;;;;;;;;5042019;28;20028;-65
2023/11/06 12:23:00;;;;;;;7.67;1.40;;;;;;;;;;5042786;28;20432;-62
2023/11/06 12:25:37;;;;;;;5.83;1.30;;;;;;;;;;5040473;28;20654;-68
2023/11/06 12:28:05;;;;;;;6.50;1.40;;;;;;;;;;5043260;28;20532;-62
2023/11/06 12:30:31;;;;;;;5.37;1.43;;;;;;;;;;5036538;28;20030;-66
2023/11/06 12:33:07;;;;;;;3.33;0.83;;;;;;;;;;5042215;28;20083;-64
2023/11/06 12:35:36;;;;;;;6.67;1.30;;;;;;;;;;5038976;28;20029;-61
2023/11/06 12:38:01;;;;;;;5.20;1.03;;;;;;;;;;5033392;28;20021;-66
2023/11/06 12:40:27;;;;;;;10.40;1.83;;;;;;;;;;5043084;28;20462;-63
2023/11/06 12:43:00;;;;;;;8.77;1.53;;;;;;;;;;5043115;28;20082;-64
2023/11/06 12:45:26;;;;;;;4.67;1.57;;;;;;;;;;5044514;28;20708;-63
2023/11/06 12:47:52;;;;;;;6.23;1.27;;;;;;;;;;5035423;28;20017;-64
2023/11/06 12:50:17;;;;;;;9.37;1.47;;;;;;;;;;5032334;28;20500;-63
2023/11/06 12:52:42;;;;;;;6.47;1.40;;;;;;;;;;5040898;28;20020;-64
2023/11/06 12:55:10;;;;;;;4.90;1.20;;;;;;;;;;5041912;28;20033;-64
2023/11/06 12:57:37;;;;;;;9.83;2.00;;;;;;;;;;5041726;28;20513;-67
2023/11/06 13:00:05;;;;;;;7.70;1.83;;;;;;;;;;5038005;28;20093;-65
2023/11/06 13:02:33;;;;;;;8.87;1.30;;;;;;;;;;5034999;28;20082;-64
2023/11/06 13:04:58;;;;;;;7.10;1.43;;;;;;;;;;5039218;28;20418;-67
2023/11/06 13:07:25;;;;;;;7.18;1.52;;;;;;;;;;5038472;28;20048;-65
2023/11/06 13:09:50;;;;;;;10.17;1.67;;;;;;;;;;5040467;28;20086;-68
2023/11/06 13:12:15;;;;;;;7.63;1.23;;;;;;;;;;5040750;28;20393;-64
2023/11/06 13:14:41;;;;;;;7.88;1.70;;;;;;;;;;5038571;28;20010;-65
2023/11/06 13:17:07;;;;;;;6.22;1.10;;;;;;;;;;5042324;28;20532;-64
2023/11/06 13:19:32;;;;;;;8.27;1.50;;;;;;;;;;5043268;28;20081;-66
2023/11/06 13:21:58;;;;;;;12.17;1.30;;;;;;;;;;5039997;28;20390;-64
2023/11/06 13:24:28;;;;;;;12.63;2.10;;;;;;;;;;5039499;28;20016;-64
2023/11/06 13:26:53;;;;;;;5.57;1.30;;;;;;;;;;5042140;28;20650;-66
2023/11/06 13:29:19;;;;;;;8.43;1.40;;;;;;;;;;5043058;28;20176;-69
2023/11/06 13:31:45;;;;;;;10.33;1.40;;;;;;;;;;5037702;28;20016;-70
2023/11/06 13:34:10;;;;;;;6.83;1.30;;;;;;;;;;5035807;28;20032;-70
2023/11/06 13:36:41;;;;;;;8.20;1.47;;;;;;;;;;5039294;28;20025;-71
2023/11/06 13:39:06;;;;;;;4.53;1.37;;;;;;;;;;5041781;28;20024;-70
2023/11/06 13:41:31;;;;;;;8.10;1.77;;;;;;;;;;5043553;28;20021;-69
2023/11/06 13:43:56;;;;;;;11.60;1.73;;;;;;;;;;5042543;28;20280;-70
2023/11/06 13:46:23;;;;;;;9.73;1.43;;;;;;;;;;5031931;28;20126;-67
2023/11/06 13:48:48;;;;;;;6.63;1.00;;;;;;;;;;5038209;28;20094;-65
2023/11/06 13:51:16;;;;;;;6.80;1.10;;;;;;;;;;5042765;28;20063;-66
2023/11/06 13:53:48;;;;;;;6.33;1.03;;;;;;;;;;5043948;28;20096;-68
2023/11/06 13:56:25;;;;;;;6.60;1.35;;;;;;;;;;5038693;28;20041;-69
2023/11/06 13:58:50;;;;;;;8.83;1.30;;;;;;;;;;5036280;28;20055;-69
2023/11/06 14:01:19;;;;;;;8.67;1.33;;;;;;;;;;5033155;28;20520;-67
2023/11/06 14:03:50;;;;;;;5.57;1.37;;;;;;;;;;5035152;28;20485;-66
2023/11/06 14:06:19;;;;;;;6.87;1.53;;;;;;;;;;5040430;28;20147;-69
2023/11/06 14:08:48;;;;;;;8.73;1.93;;;;;;;;;;5036485;28;20024;-66
2023/11/06 14:11:14;;;;;;;10.93;2.17;;;;;;;;;;5036743;28;20877;-70
2023/11/06 14:13:40;;;;;;;11.37;1.90;;;;;;;;;;5041588;28;20257;-69
2023/11/06 14:16:07;;;;;;;10.73;1.50;;;;;;;;;;5039313;28;20465;-67
2023/11/06 14:18:32;;;;;;;10.57;1.63;;;;;;;;;;5041088;28;20174;-70
2023/11/06 14:20:58;;;;;;;6.93;1.37;;;;;;;;;;5040150;28;20264;-67
2023/11/06 14:23:26;;;;;;;7.80;1.40;;;;;;;;;;5034240;28;20386;-70
2023/11/06 14:25:54;;;;;;;12.53;1.77;;;;;;;;;;5035717;28;20521;-69
2023/11/06 14:28:22;;;;;;;11.37;1.50;;;;;;;;;;5035155;28;20025;-70
2023/11/06 14:30:49;;;;;;;7.90;1.70;;;;;;;;;;5036364;28;20238;-66
2023/11/06 14:33:14;;;;;;;6.83;1.37;;;;;;;;;;5034201;28;20013;-68
2023/11/06 14:35:41;;;;;;;6.83;1.50;;;;;;;;;;5033674;28;20032;-66